createdAt,value
2022-10-02T00:00:44.495Z,99543.25
2022-10-02T00:01:58.949Z,99539.84
2022-10-02T00:03:10.295Z,99526.88
2022-10-02T00:04:18.500Z,99522.13
2022-10-02T00:05:48.116Z,99514.91
2022-10-02T00:06:52.871Z,99506.53
2022-10-02T00:08:13.425Z,99511.06
2022-10-02T00:09:57.928Z,99498.69
2022-10-02T00:11:24.502Z,99509.59
2022-10-02T00:12:29.241Z,99514.13
2022-10-02T00:13:39.467Z,99507.56
2022-10-02T00:14:45.070Z,99505.00
2022-10-02T00:15:49.020Z,99499.88
2022-10-02T00:16:55.373Z,99499.41
2022-10-02T00:18:07.043Z,99501.03
2022-10-02T00:19:11.535Z,99500.66
2022-10-02T00:20:16.120Z,99505.69
2022-10-02T00:21:20.835Z,99515.47
2022-10-02T00:23:00.138Z,99512.28
2022-10-02T00:24:05.638Z,99514.53
2022-10-02T00:25:22.961Z,99508.66
2022-10-02T00:26:33.744Z,99518.19
2022-10-02T00:28:11.423Z,99512.63
2022-10-02T00:29:28.384Z,99512.63
2022-10-02T00:30:41.486Z,99511.50
2022-10-02T00:31:54.176Z,99510.91
2022-10-02T00:33:17.528Z,99518.50
2022-10-02T00:34:33.564Z,99515.47
2022-10-02T00:35:41.420Z,99512.28
2022-10-02T00:37:06.567Z,99517.81
2022-10-02T00:38:23.315Z,99514.31
2022-10-02T00:39:47.521Z,99513.38
2022-10-02T00:40:58.451Z,99514.06
2022-10-02T00:42:23.321Z,99519.75
2022-10-02T00:43:31.036Z,99510.72
2022-10-02T00:45:04.323Z,99507.09
2022-10-02T00:46:28.562Z,99515.63
2022-10-02T00:47:45.601Z,99523.13
2022-10-02T00:49:04.540Z,99523.78
2022-10-02T00:50:32.016Z,99524.16
2022-10-02T00:52:11.564Z,99531.66
2022-10-02T00:53:27.215Z,99537.47
2022-10-02T00:55:14.530Z,99540.59
2022-10-02T00:56:53.922Z,99532.75
2022-10-02T00:58:04.743Z,99531.75
2022-10-02T00:59:25.277Z,99518.25
2022-10-02T01:00:27.617Z,99523.69
2022-10-02T01:01:41.268Z,99522.06
2022-10-02T01:03:26.353Z,99524.88
2022-10-02T01:04:37.782Z,99528.59
2022-10-02T01:05:40.066Z,99523.63
2022-10-02T01:06:42.446Z,99517.47
2022-10-02T01:07:49.799Z,99515.16
2022-10-02T01:08:52.097Z,99511.97
2022-10-02T01:09:54.436Z,99511.69
2022-10-02T01:10:56.798Z,99518.59
2022-10-02T01:12:00.195Z,99517.09
2022-10-02T01:13:02.663Z,99503.59
2022-10-02T01:14:05.232Z,99505.53
2022-10-02T01:15:19.211Z,99503.28
2022-10-02T01:16:21.445Z,99510.75
2022-10-02T01:17:34.315Z,99503.91
2022-10-02T01:18:36.522Z,99515.94
2022-10-02T01:19:40.954Z,99513.59
2022-10-02T01:20:48.355Z,99516.94
2022-10-02T01:21:56.872Z,99517.09
2022-10-02T01:23:03.735Z,99524.41
2022-10-02T01:24:14.759Z,99519.19
2022-10-02T01:25:17.138Z,99510.19
2022-10-02T01:26:19.998Z,99506.31
2022-10-02T01:27:24.566Z,99510.44
2022-10-02T01:28:27.203Z,99516.16
2022-10-02T01:29:29.432Z,99508.56
2022-10-02T01:30:34.169Z,99510.13
2022-10-02T01:31:37.015Z,99508.25
2022-10-02T01:33:09.615Z,99513.16
2022-10-02T01:34:12.255Z,99507.47
2022-10-02T01:35:14.635Z,99512.75
2022-10-02T01:36:17.214Z,99514.00
2022-10-02T01:37:22.273Z,99524.94
2022-10-02T01:38:25.154Z,99531.84
2022-10-02T01:39:27.448Z,99521.75
2022-10-02T01:40:32.036Z,99531.31
2022-10-02T01:41:41.101Z,99535.56
2022-10-02T01:42:43.292Z,99525.16
2022-10-02T01:43:56.220Z,99530.38
2022-10-02T01:44:58.722Z,99521.38
2022-10-02T01:46:19.454Z,99527.03
2022-10-02T01:47:43.715Z,99527.03
2022-10-02T01:48:55.252Z,99517.72
2022-10-02T01:50:24.258Z,99514.44
2022-10-02T01:51:29.105Z,99511.59
2022-10-02T01:52:58.298Z,99512.84
2022-10-02T01:54:03.128Z,99514.00
2022-10-02T01:55:29.461Z,99518.19
2022-10-02T01:56:51.228Z,99512.03
2022-10-02T01:58:05.212Z,99524.69
2022-10-02T01:59:16.439Z,99530.69
2022-10-02T02:00:25.611Z,99532.25
2022-10-02T02:01:40.304Z,99533.25
2022-10-02T02:02:48.246Z,99540.09
2022-10-02T02:04:01.254Z,99537.19
2022-10-02T02:05:17.905Z,99536.19
2022-10-02T02:06:48.175Z,99539.84
2022-10-02T02:07:55.270Z,99532.31
2022-10-02T02:09:12.862Z,99536.81
2022-10-02T02:10:34.086Z,99533.00
2022-10-02T02:11:41.552Z,99527.50
2022-10-02T02:12:49.575Z,99536.91
2022-10-02T02:14:16.586Z,99543.25
2022-10-02T02:15:34.916Z,99540.22
2022-10-02T02:16:37.298Z,99543.56
2022-10-02T02:17:55.379Z,99547.59
2022-10-02T02:19:25.536Z,99547.06
2022-10-02T02:20:34.364Z,99545.13
2022-10-02T02:21:59.041Z,99536.13
2022-10-02T02:23:10.674Z,99535.47
2022-10-02T02:24:39.303Z,99535.00
2022-10-02T02:25:45.762Z,99542.03
2022-10-02T02:26:49.489Z,99536.72
2022-10-02T02:27:57.279Z,99538.03
2022-10-02T02:29:07.490Z,99539.75
2022-10-02T02:30:13.927Z,99536.81
2022-10-02T02:31:20.659Z,99546.41
2022-10-02T02:32:26.945Z,99541.69
2022-10-02T02:33:39.839Z,99546.69
2022-10-02T02:34:48.045Z,99533.38
2022-10-02T02:35:55.047Z,99546.97
2022-10-02T02:37:05.800Z,99543.66
2022-10-02T02:38:17.958Z,99547.13
2022-10-02T02:39:28.923Z,99550.03
2022-10-02T02:40:37.032Z,99550.47
2022-10-02T02:41:48.818Z,99553.66
2022-10-02T02:43:01.204Z,99553.25
2022-10-02T02:44:11.590Z,99556.97
2022-10-02T02:45:19.869Z,99560.09
2022-10-02T02:46:28.457Z,99562.19
2022-10-02T02:48:01.171Z,99562.56
2022-10-02T02:49:09.827Z,99563.03
2022-10-02T02:50:18.566Z,99547.13
2022-10-02T02:51:29.653Z,99550.63
2022-10-02T02:52:41.607Z,99565.53
2022-10-02T02:54:04.697Z,99566.47
2022-10-02T02:55:18.346Z,99555.97
2022-10-02T02:56:21.679Z,99552.03
2022-10-02T02:57:30.113Z,99566.53
2022-10-02T02:58:41.361Z,99561.03
2022-10-02T02:59:46.648Z,99560.22
2022-10-02T03:00:49.321Z,99551.84
2022-10-02T03:01:51.723Z,99550.16
2022-10-02T03:02:55.467Z,99547.91
2022-10-02T03:03:57.674Z,99550.06
2022-10-02T03:04:59.801Z,99557.13
2022-10-02T03:06:22.062Z,99560.56
2022-10-02T03:07:24.500Z,99553.09
2022-10-02T03:08:29.278Z,99559.16
2022-10-02T03:09:33.494Z,99564.91
2022-10-02T03:10:53.351Z,99563.19
2022-10-02T03:12:24.003Z,99561.31
2022-10-02T03:13:33.136Z,99566.31
2022-10-02T03:15:08.274Z,99565.69
2022-10-02T03:16:19.920Z,99558.22
2022-10-02T03:17:35.697Z,99555.69
2022-10-02T03:19:14.653Z,99561.13
2022-10-02T03:20:17.463Z,99545.88
2022-10-02T03:21:29.455Z,99553.72
2022-10-02T03:22:45.612Z,99555.84
2022-10-02T03:24:01.177Z,99555.34
2022-10-02T03:25:22.579Z,99549.78
2022-10-02T03:26:41.159Z,99552.31
2022-10-02T03:27:49.602Z,99554.34
2022-10-02T03:28:56.935Z,99553.50
2022-10-02T03:30:20.558Z,99553.19
2022-10-02T03:31:25.279Z,99546.91
2022-10-02T03:32:29.403Z,99547.13
2022-10-02T03:33:36.230Z,99545.34
2022-10-02T03:34:39.055Z,99548.94
2022-10-02T03:35:42.209Z,99550.47
2022-10-02T03:36:46.605Z,99550.25
2022-10-02T03:37:52.602Z,99544.28
2022-10-02T03:39:22.999Z,99547.75
2022-10-02T03:40:24.232Z,99549.84
2022-10-02T03:41:26.418Z,99545.66
2022-10-02T03:42:33.249Z,99556.13
2022-10-02T03:43:35.566Z,99543.94
2022-10-02T03:44:37.781Z,99557.22
2022-10-02T03:45:51.094Z,99555.81
2022-10-02T03:46:54.054Z,99550.47
2022-10-02T03:47:56.479Z,99560.50
2022-10-02T03:48:58.872Z,99549.94
2022-10-02T03:50:01.068Z,99559.09
2022-10-02T03:51:03.689Z,99562.81
2022-10-02T03:52:05.939Z,99562.88
2022-10-02T03:53:22.380Z,99559.94
2022-10-02T03:54:24.690Z,99560.50
2022-10-02T03:55:38.948Z,99563.69
2022-10-02T03:56:49.897Z,99560.16
2022-10-02T03:57:54.273Z,99562.75
2022-10-02T03:59:01.761Z,99561.28
2022-10-02T04:00:12.925Z,99564.91
2022-10-02T04:01:26.631Z,99559.94
2022-10-02T04:02:47.397Z,99555.03
2022-10-02T04:03:56.024Z,99561.19
2022-10-02T04:05:14.174Z,99561.25
2022-10-02T04:06:25.331Z,99564.84
2022-10-02T04:07:36.563Z,99564.03
2022-10-02T04:09:10.201Z,99559.16
2022-10-02T04:10:21.409Z,99551.94
2022-10-02T04:11:45.021Z,99566.53
2022-10-02T04:12:51.985Z,99549.84
2022-10-02T04:14:03.681Z,99553.19
2022-10-02T04:15:39.826Z,99569.31
2022-10-02T04:16:46.714Z,99560.53
2022-10-02T04:17:59.659Z,99558.78
2022-10-02T04:19:11.496Z,99558.16
2022-10-02T04:20:33.061Z,99557.91
2022-10-02T04:21:59.323Z,99557.50
2022-10-02T04:23:11.748Z,99550.47
2022-10-02T04:24:42.710Z,99563.38
2022-10-02T04:25:49.546Z,99550.78
2022-10-02T04:27:06.939Z,99554.50
2022-10-02T04:28:15.245Z,99560.69
2022-10-02T04:29:27.236Z,99550.69
2022-10-02T04:30:30.191Z,99555.41
2022-10-02T04:31:32.482Z,99554.78
2022-10-02T04:32:36.762Z,99554.63
2022-10-02T04:33:39.297Z,99552.78
2022-10-02T04:34:41.919Z,99555.88
2022-10-02T04:36:05.527Z,99550.88
2022-10-02T04:37:44.410Z,99553.44
2022-10-02T04:39:04.850Z,99552.75
2022-10-02T04:40:21.921Z,99551.94
2022-10-02T04:41:57.689Z,99548.22
2022-10-02T04:43:30.465Z,99540.50
2022-10-02T04:45:09.976Z,99549.66
2022-10-02T04:46:14.796Z,99553.91
2022-10-02T04:47:45.786Z,99554.81
2022-10-02T04:49:01.078Z,99548.16
2022-10-02T04:50:32.046Z,99549.59
2022-10-02T04:51:59.997Z,99544.47
2022-10-02T04:53:12.030Z,99541.19
2022-10-02T04:54:35.526Z,99538.97
2022-10-02T04:55:49.312Z,99542.75
2022-10-02T04:57:16.643Z,99542.63
2022-10-02T04:58:53.828Z,99535.94
2022-10-02T05:00:04.808Z,99536.94
2022-10-02T05:01:46.494Z,99534.06
2022-10-02T05:03:04.735Z,99535.63
2022-10-02T05:04:44.123Z,99540.00
2022-10-02T05:06:08.845Z,99527.28
2022-10-02T05:07:37.977Z,99519.84
2022-10-02T05:08:58.098Z,99520.22
2022-10-02T05:10:44.380Z,99517.06
2022-10-02T05:12:22.973Z,99511.84
2022-10-02T05:13:49.586Z,99513.22
2022-10-02T05:15:28.845Z,99516.44
2022-10-02T05:17:07.260Z,99512.59
2022-10-02T05:18:20.315Z,99514.16
2022-10-02T05:19:48.339Z,99513.56
2022-10-02T05:21:08.527Z,99517.50
2022-10-02T05:22:26.139Z,99510.09
2022-10-02T05:23:57.813Z,99497.69
2022-10-02T05:25:30.260Z,99505.50
2022-10-02T05:27:02.825Z,99506.00
2022-10-02T05:28:17.054Z,99509.44
2022-10-02T05:29:49.329Z,99511.72
2022-10-02T05:31:21.195Z,99510.72
2022-10-02T05:32:39.206Z,99516.00
2022-10-02T05:34:02.806Z,99507.59
2022-10-02T05:35:19.352Z,99518.41
2022-10-02T05:36:28.942Z,99508.84
2022-10-02T05:37:44.335Z,99511.66
2022-10-02T05:39:04.243Z,99507.22
2022-10-02T05:40:31.787Z,99505.59
2022-10-02T05:41:51.845Z,99508.94
2022-10-02T05:43:15.314Z,99517.94
2022-10-02T05:44:19.679Z,99516.44
2022-10-02T05:45:28.249Z,99513.25
2022-10-02T05:46:43.796Z,99506.03
2022-10-02T05:47:46.491Z,99506.16
2022-10-02T05:49:00.100Z,99505.53
2022-10-02T05:50:22.136Z,99501.47
2022-10-02T05:51:36.855Z,99506.13
2022-10-02T05:52:59.328Z,99507.47
2022-10-02T05:54:07.275Z,99508.16
2022-10-02T05:55:18.268Z,99498.16
2022-10-02T05:56:23.994Z,99495.59
2022-10-02T05:57:42.898Z,99502.81
2022-10-02T05:59:13.356Z,99493.63
2022-10-02T06:00:29.997Z,99489.28
2022-10-02T06:01:39.640Z,99480.69
2022-10-02T06:02:58.789Z,99489.53
2022-10-02T06:04:07.872Z,99488.44
2022-10-02T06:05:29.439Z,99487.09
2022-10-02T06:06:47.310Z,99480.41
2022-10-02T06:10:12.224Z,99477.19
2022-10-02T06:17:26.994Z,99461.69
2022-10-02T06:18:33.543Z,99455.47
2022-10-02T06:19:54.081Z,99452.06
2022-10-02T06:21:05.867Z,99456.09
2022-10-02T06:22:15.207Z,99470.44
2022-10-02T06:23:24.783Z,99468.19
2022-10-02T06:24:33.711Z,99476.41
2022-10-02T06:25:49.090Z,99461.63
2022-10-02T06:27:00.906Z,99461.69
2022-10-02T06:28:15.783Z,99466.72
2022-10-02T06:29:27.343Z,99467.59
2022-10-02T06:30:32.189Z,99468.81
2022-10-02T06:31:44.803Z,99464.94
2022-10-02T06:33:05.891Z,99465.31
2022-10-02T06:34:12.180Z,99456.50
2022-10-02T06:35:16.661Z,99462.00
2022-10-02T06:36:33.918Z,99458.88
2022-10-02T06:37:42.543Z,99465.00
2022-10-02T06:39:24.278Z,99453.59
2022-10-02T06:40:45.653Z,99459.47
2022-10-02T06:42:34.598Z,99452.38
2022-10-02T06:44:04.344Z,99457.91
2022-10-02T06:45:32.705Z,99464.00
2022-10-02T06:46:37.695Z,99449.06
2022-10-02T06:48:19.113Z,99439.28
2022-10-02T06:50:04.630Z,99428.28
2022-10-02T06:51:21.916Z,99439.66
2022-10-02T06:52:42.233Z,99439.34
2022-10-02T06:54:26.229Z,99434.88
2022-10-02T06:56:03.190Z,99436.22
2022-10-02T06:57:21.415Z,99432.91
2022-10-02T06:58:30.082Z,99430.94
2022-10-02T06:59:59.357Z,99420.31
2022-10-02T07:01:41.545Z,99422.94
2022-10-02T07:02:55.755Z,99419.47
2022-10-02T07:04:19.177Z,99416.50
2022-10-02T07:05:27.094Z,99409.00
2022-10-02T07:07:17.063Z,99418.72
2022-10-02T07:08:37.869Z,99419.47
2022-10-02T07:09:40.293Z,99418.47
2022-10-02T07:10:49.715Z,99415.91
2022-10-02T07:12:04.123Z,99411.88
2022-10-02T07:13:27.582Z,99414.66
2022-10-02T07:14:51.100Z,99420.94
2022-10-02T07:16:09.130Z,99419.06
2022-10-02T07:17:21.508Z,99410.16
2022-10-02T07:18:44.440Z,99408.69
2022-10-02T07:19:52.328Z,99404.13
2022-10-02T07:21:10.197Z,99406.69
2022-10-02T07:22:43.309Z,99408.66
2022-10-02T07:24:01.432Z,99398.38
2022-10-02T07:25:16.741Z,99403.97
2022-10-02T07:26:35.368Z,99404.13
2022-10-02T07:28:22.879Z,99394.91
2022-10-02T07:29:51.212Z,99387.09
2022-10-02T07:30:59.875Z,99400.34
2022-10-02T07:32:35.014Z,99395.53
2022-10-02T07:33:40.000Z,99388.94
2022-10-02T07:35:00.993Z,99394.44
2022-10-02T07:36:11.801Z,99396.13
2022-10-02T07:37:41.269Z,99400.69
2022-10-02T07:39:12.606Z,99402.13
2022-10-02T07:40:45.973Z,99400.97
2022-10-02T07:41:59.948Z,99402.81
2022-10-02T07:43:43.507Z,99396.13
2022-10-02T07:45:02.323Z,99398.31
2022-10-02T07:46:27.932Z,99399.97
2022-10-02T07:48:07.454Z,99394.53
2022-10-02T07:49:24.641Z,99392.75
2022-10-02T07:50:53.382Z,99392.63
2022-10-02T07:52:10.558Z,99376.72
2022-10-02T07:53:32.080Z,99373.78
2022-10-02T07:54:42.629Z,99377.69
2022-10-02T07:55:51.277Z,99379.59
2022-10-02T07:56:58.988Z,99376.06
2022-10-02T07:58:16.011Z,99367.63
2022-10-02T07:59:19.194Z,99379.03
2022-10-02T08:00:24.552Z,99376.75
2022-10-02T08:01:32.098Z,99371.31
2022-10-02T08:02:43.514Z,99388.41
2022-10-02T08:03:52.204Z,99387.88
2022-10-02T08:04:59.354Z,99389.44
2022-10-02T08:06:03.103Z,99391.16
2022-10-02T08:07:06.389Z,99399.44
2022-10-02T08:08:22.097Z,99400.53
2022-10-02T08:09:37.557Z,99386.03
2022-10-02T08:10:44.185Z,99392.88
2022-10-02T08:11:53.736Z,99389.38
2022-10-02T08:13:23.328Z,99389.31
2022-10-02T08:14:42.956Z,99385.75
2022-10-02T08:15:48.281Z,99387.50
2022-10-02T08:16:57.062Z,99386.50
2022-10-02T08:18:22.879Z,99388.81
2022-10-02T08:19:35.004Z,99388.91
2022-10-02T08:20:46.395Z,99395.22
2022-10-02T08:21:56.152Z,99397.63
2022-10-02T08:23:03.600Z,99395.84
2022-10-02T08:24:13.607Z,99395.94
2022-10-02T08:25:28.519Z,99400.78
2022-10-02T08:26:36.845Z,99419.03
2022-10-02T08:28:05.651Z,99412.22
2022-10-02T08:29:26.393Z,99415.59
2022-10-02T08:30:29.155Z,99423.78
2022-10-02T08:31:34.679Z,99436.19
2022-10-02T08:32:37.353Z,99433.19
2022-10-02T08:33:40.213Z,99441.75
2022-10-02T08:34:44.067Z,99431.34
2022-10-02T08:36:23.140Z,99442.13
2022-10-02T08:37:57.774Z,99447.09
2022-10-02T08:39:25.314Z,99450.03
2022-10-02T08:40:46.234Z,99447.25
2022-10-02T08:42:33.592Z,99446.22
2022-10-02T08:43:47.764Z,99451.75
2022-10-02T08:45:03.998Z,99452.38
2022-10-02T08:46:32.635Z,99450.63
2022-10-02T08:47:59.778Z,99450.53
2022-10-02T08:49:40.009Z,99440.69
2022-10-02T08:51:07.309Z,99437.81
2022-10-02T08:52:27.620Z,99425.38
2022-10-02T08:54:06.470Z,99425.16
2022-10-02T08:55:19.211Z,99447.56
2022-10-02T08:56:34.232Z,99430.13
2022-10-02T08:57:58.984Z,99430.50
2022-10-02T08:59:04.467Z,99427.38
2022-10-02T09:00:09.971Z,99430.63
2022-10-02T09:01:18.794Z,99439.00
2022-10-02T09:02:48.953Z,99444.97
2022-10-02T09:04:15.666Z,99452.63
2022-10-02T09:05:52.686Z,99455.53
2022-10-02T09:07:27.978Z,99448.22
2022-10-02T09:08:59.826Z,99445.28
2022-10-02T09:10:26.547Z,99447.34
2022-10-02T09:11:37.828Z,99433.78
2022-10-02T09:12:49.155Z,99441.47
2022-10-02T09:14:20.905Z,99433.41
2022-10-02T09:15:28.447Z,99430.72
2022-10-02T09:16:44.414Z,99433.78
2022-10-02T09:17:55.753Z,99434.13
2022-10-02T09:19:03.409Z,99431.06
2022-10-02T09:20:27.114Z,99427.25
2022-10-02T09:21:51.278Z,99425.88
2022-10-02T09:23:21.211Z,99412.50
2022-10-02T09:25:37.378Z,99413.44
2022-10-02T09:26:58.017Z,99420.81
2022-10-02T09:28:47.139Z,99424.78
2022-10-02T09:30:12.612Z,99432.44
2022-10-02T09:31:30.753Z,99436.84
2022-10-02T09:33:06.515Z,99431.78
2022-10-02T09:34:39.527Z,99435.91
2022-10-02T09:35:44.522Z,99435.84
2022-10-02T09:37:08.631Z,99437.22
2022-10-02T09:38:29.711Z,99432.50
2022-10-02T09:39:51.605Z,99436.41
2022-10-02T09:41:12.502Z,99435.09
2022-10-02T09:42:26.778Z,99438.59
2022-10-02T09:44:07.704Z,99433.03
2022-10-02T09:45:51.362Z,99445.13
2022-10-02T09:47:08.674Z,99446.13
2022-10-02T09:48:32.632Z,99436.50
2022-10-02T09:49:43.708Z,99441.09
2022-10-02T09:50:54.584Z,99441.69
2022-10-02T09:52:27.598Z,99448.50
2022-10-02T09:53:48.448Z,99458.06
2022-10-02T09:55:29.324Z,99461.94
2022-10-02T09:56:53.345Z,99462.53
2022-10-02T09:58:20.131Z,99462.09
2022-10-02T09:59:44.569Z,99470.84
2022-10-02T10:01:18.410Z,99464.59
2022-10-02T10:02:41.541Z,99463.34
2022-10-02T10:04:16.466Z,99448.44
2022-10-02T10:05:43.088Z,99454.63
2022-10-02T10:07:19.059Z,99462.47
2022-10-02T10:08:36.787Z,99451.19
2022-10-02T10:10:14.661Z,99451.91
2022-10-02T10:11:16.844Z,99441.13
2022-10-02T10:13:00.949Z,99443.63
2022-10-02T10:14:21.764Z,99452.00
2022-10-02T10:16:14.978Z,99445.94
2022-10-02T10:17:30.561Z,99449.63
2022-10-02T10:18:55.084Z,99448.88
2022-10-02T10:20:22.841Z,99451.81
2022-10-02T10:21:48.044Z,99447.28
2022-10-02T10:23:36.388Z,99448.16
2022-10-02T10:25:02.163Z,99454.28
2022-10-02T10:26:18.317Z,99449.53
2022-10-02T10:27:47.304Z,99449.84
2022-10-02T10:28:55.329Z,99453.94
2022-10-02T10:30:16.028Z,99453.00
2022-10-02T10:31:27.144Z,99457.19
2022-10-02T10:33:13.683Z,99460.22
2022-10-02T10:34:46.065Z,99462.81
2022-10-02T10:35:52.413Z,99465.09
2022-10-02T10:37:35.011Z,99464.88
2022-10-02T10:38:51.259Z,99471.59
2022-10-02T10:40:29.818Z,99471.31
2022-10-02T10:42:05.408Z,99473.59
2022-10-02T10:43:51.918Z,99473.09
2022-10-02T10:45:11.314Z,99480.56
2022-10-02T10:46:47.169Z,99487.53
2022-10-02T10:47:59.161Z,99499.41
2022-10-02T10:49:10.479Z,99489.16
2022-10-02T10:50:35.724Z,99480.84
2022-10-02T10:52:13.956Z,99483.63
2022-10-02T10:53:32.966Z,99469.00
2022-10-02T10:55:08.053Z,99472.09
2022-10-02T10:56:39.423Z,99485.31
2022-10-02T10:57:47.890Z,99489.88
2022-10-02T10:59:12.144Z,99492.59
2022-10-02T11:00:25.866Z,99498.03
2022-10-02T11:01:45.793Z,99497.53
2022-10-02T11:03:18.292Z,99484.97
2022-10-02T11:04:20.540Z,99489.16
2022-10-02T11:05:51.497Z,99498.72
2022-10-02T11:07:41.944Z,99498.78
2022-10-02T11:08:54.329Z,99479.97
2022-10-02T11:10:24.124Z,99496.50
2022-10-02T11:11:49.372Z,99490.19
2022-10-02T11:13:01.182Z,99484.13
2022-10-02T11:14:26.747Z,99478.97
2022-10-02T11:15:44.720Z,99483.47
2022-10-02T11:17:13.687Z,99471.72
2022-10-02T11:18:47.649Z,99478.84
2022-10-02T11:20:16.268Z,99474.78
2022-10-02T11:21:58.248Z,99460.63
2022-10-02T11:23:07.345Z,99473.59
2022-10-02T11:24:25.910Z,99475.28
2022-10-02T11:25:45.984Z,99480.41
2022-10-02T11:27:18.952Z,99475.47
2022-10-02T11:28:46.985Z,99474.44
2022-10-02T11:30:11.279Z,99476.31
2022-10-02T11:31:16.578Z,99482.69
2022-10-02T11:32:39.271Z,99476.47
2022-10-02T11:34:12.804Z,99479.59
2022-10-02T11:35:24.560Z,99473.16
2022-10-02T11:36:44.743Z,99475.09
2022-10-02T11:38:26.064Z,99473.94
2022-10-02T11:39:55.702Z,99488.84
2022-10-02T11:41:21.248Z,99490.38
2022-10-02T11:43:04.855Z,99484.84
2022-10-02T11:44:34.777Z,99501.44
2022-10-02T11:46:21.629Z,99487.97
2022-10-02T11:47:28.669Z,99480.59
2022-10-02T11:48:40.796Z,99491.09
2022-10-02T11:49:59.054Z,99483.00
2022-10-02T11:51:17.792Z,99484.69
2022-10-02T11:52:22.930Z,99489.69
2022-10-02T11:53:37.026Z,99475.09
2022-10-02T11:54:57.556Z,99488.25
2022-10-02T11:56:22.212Z,99492.41
2022-10-02T11:57:45.800Z,99486.75
2022-10-02T11:59:27.315Z,99498.06
2022-10-02T12:00:51.443Z,99515.09
2022-10-02T12:02:16.676Z,99510.91
2022-10-02T12:03:37.666Z,99510.84
2022-10-02T12:05:06.002Z,99518.03
2022-10-02T12:06:36.444Z,99519.63
2022-10-02T12:07:41.480Z,99512.34
2022-10-02T12:09:05.407Z,99514.81
2022-10-02T12:10:28.570Z,99521.16
2022-10-02T12:12:01.626Z,99522.06
2022-10-02T12:13:15.843Z,99518.44
2022-10-02T12:14:23.821Z,99528.41
2022-10-02T12:15:44.612Z,99533.22
2022-10-02T12:17:24.369Z,99536.59
2022-10-02T12:18:31.747Z,99545.81
2022-10-02T12:20:15.178Z,99540.34
2022-10-02T12:21:54.407Z,99542.06
2022-10-02T12:23:52.256Z,99536.50
2022-10-02T12:25:32.009Z,99535.69
2022-10-02T12:27:09.546Z,99538.47
2022-10-02T12:28:32.461Z,99548.13
2022-10-02T12:29:53.321Z,99546.16
2022-10-02T12:31:25.805Z,99533.88
2022-10-02T12:32:46.700Z,99551.59
2022-10-02T12:34:01.211Z,99555.88
2022-10-02T12:35:32.424Z,99554.38
2022-10-02T12:36:58.165Z,99549.22
2022-10-02T12:38:30.426Z,99553.66
2022-10-02T12:39:32.600Z,99555.22
2022-10-02T12:41:20.707Z,99552.13
2022-10-02T12:42:53.545Z,99557.59
2022-10-02T12:44:44.778Z,99544.78
2022-10-02T12:45:58.738Z,99545.13
2022-10-02T12:47:26.204Z,99541.78
2022-10-02T12:49:06.615Z,99543.81
2022-10-02T12:50:46.609Z,99545.72
2022-10-02T12:52:07.244Z,99549.72
2022-10-02T12:53:44.453Z,99539.22
2022-10-02T12:55:15.974Z,99546.63
2022-10-02T12:56:36.180Z,99548.78
2022-10-02T12:57:53.184Z,99550.47
2022-10-02T12:59:07.664Z,99548.22
2022-10-02T13:00:16.381Z,99550.78
2022-10-02T13:01:30.778Z,99544.63
2022-10-02T13:03:11.816Z,99540.56
2022-10-02T13:04:24.718Z,99541.09
2022-10-02T13:05:46.962Z,99532.06
2022-10-02T13:07:08.043Z,99535.72
2022-10-02T13:08:31.466Z,99524.94
2022-10-02T13:09:38.620Z,99531.69
2022-10-02T13:10:57.335Z,99530.41
2022-10-02T13:12:32.340Z,99525.28
2022-10-02T13:13:53.632Z,99525.59
2022-10-02T13:15:25.218Z,99523.06
2022-10-02T13:17:12.422Z,99533.19
2022-10-02T13:18:43.699Z,99529.03
2022-10-02T13:20:14.454Z,99538.13
2022-10-02T13:21:30.442Z,99533.66
2022-10-02T13:22:40.934Z,99531.22
2022-10-02T13:23:54.837Z,99540.97
2022-10-02T13:25:15.581Z,99552.19
2022-10-02T13:26:26.845Z,99552.69
2022-10-02T13:27:49.436Z,99547.16
2022-10-02T13:29:07.725Z,99551.59
2022-10-02T13:30:20.151Z,99563.53
2022-10-02T13:31:27.590Z,99575.00
2022-10-02T13:32:45.177Z,99586.84
2022-10-02T13:33:59.619Z,99581.91
2022-10-02T13:35:27.736Z,99584.41
2022-10-02T13:36:46.212Z,99589.31
2022-10-02T13:38:04.486Z,99589.34
2022-10-02T13:39:24.881Z,99587.78
2022-10-02T13:41:00.207Z,99589.25
2022-10-02T13:42:02.579Z,99591.94
2022-10-02T13:43:20.016Z,99597.16
2022-10-02T13:44:37.489Z,99591.41
2022-10-02T13:46:04.297Z,99573.03
2022-10-02T13:47:22.520Z,99584.13
2022-10-02T13:48:56.147Z,99581.22
2022-10-02T13:50:23.401Z,99584.06
2022-10-02T13:51:46.478Z,99576.59
2022-10-02T13:53:18.688Z,99574.69
2022-10-02T13:54:30.493Z,99563.06
2022-10-02T13:56:03.990Z,99557.88
2022-10-02T13:57:17.287Z,99551.34
2022-10-02T13:58:28.596Z,99539.59
2022-10-02T13:59:42.698Z,99548.63
2022-10-02T14:01:16.598Z,99552.97
2022-10-02T14:02:39.871Z,99546.44
2022-10-02T14:04:13.393Z,99535.03
2022-10-02T14:05:37.037Z,99517.47
2022-10-02T14:07:05.321Z,99517.59
2022-10-02T14:08:29.361Z,99507.25
2022-10-02T14:09:45.165Z,99518.59
2022-10-02T14:11:05.014Z,99514.31
2022-10-02T14:12:13.013Z,99505.53
2022-10-02T14:13:26.943Z,99515.25
2022-10-02T14:14:56.361Z,99508.22
2022-10-02T14:16:28.090Z,99511.81
2022-10-02T14:18:02.767Z,99507.34
2022-10-02T14:19:24.717Z,99518.44
2022-10-02T14:20:29.858Z,99521.34
2022-10-02T14:21:39.759Z,99514.19
2022-10-02T14:22:48.594Z,99520.16
2022-10-02T14:24:05.715Z,99521.41
2022-10-02T14:25:28.228Z,99518.34
2022-10-02T14:26:58.713Z,99523.03
2022-10-02T14:28:12.312Z,99535.69
2022-10-02T14:29:23.744Z,99548.31
2022-10-02T14:31:04.437Z,99551.69
2022-10-02T14:32:19.047Z,99548.16
2022-10-02T14:33:58.499Z,99539.72
2022-10-02T14:35:35.484Z,99537.22
2022-10-02T14:36:53.211Z,99542.78
2022-10-02T14:38:13.050Z,99539.09
2022-10-02T14:39:41.394Z,99536.53
2022-10-02T14:40:52.013Z,99532.78
2022-10-02T14:42:15.311Z,99523.00
2022-10-02T14:43:29.128Z,99524.69
2022-10-02T14:44:46.296Z,99520.09
2022-10-02T14:46:16.798Z,99517.97
2022-10-02T14:47:27.784Z,99508.75
2022-10-02T14:49:07.651Z,99510.66
2022-10-02T14:50:32.607Z,99513.63
2022-10-02T14:51:48.034Z,99486.78
2022-10-02T14:53:11.207Z,99499.06
2022-10-02T14:54:34.407Z,99503.41
2022-10-02T14:55:44.224Z,99505.78
2022-10-02T14:57:04.816Z,99505.97
2022-10-02T14:58:28.792Z,99497.59
2022-10-02T15:00:13.768Z,99505.72
2022-10-02T15:01:21.550Z,99501.19
2022-10-02T15:02:35.712Z,99504.06
2022-10-02T15:03:56.059Z,99499.03
2022-10-02T15:05:22.117Z,99492.44
2022-10-02T15:06:41.993Z,99497.50
2022-10-02T15:07:45.544Z,99505.88
2022-10-02T15:09:02.940Z,99500.59
2022-10-02T15:10:27.564Z,99503.47
2022-10-02T15:11:35.988Z,99501.09
2022-10-02T15:13:02.924Z,99500.72
2022-10-02T15:14:25.214Z,99500.00
2022-10-02T15:15:46.668Z,99495.84
2022-10-02T15:17:32.879Z,99488.28
2022-10-02T15:18:41.852Z,99486.91
2022-10-02T15:19:51.286Z,99490.50
2022-10-02T15:21:00.742Z,99494.69
2022-10-02T15:22:19.737Z,99497.16
2022-10-02T15:23:42.151Z,99496.69
2022-10-02T15:24:48.089Z,99492.78
2022-10-02T15:25:57.860Z,99497.63
2022-10-02T15:27:22.673Z,99498.28
2022-10-02T15:28:45.368Z,99495.66
2022-10-02T15:29:56.875Z,99501.50
2022-10-02T15:31:06.933Z,99503.41
2022-10-02T15:32:20.938Z,99513.38
2022-10-02T15:33:46.138Z,99521.91
2022-10-02T15:35:00.815Z,99513.53
2022-10-02T15:36:36.018Z,99508.56